CheckWX is a tool to help pilots better visualize weather data.  It is not intended as a substitute for an official pre-flight weather briefing.

06:45:05 UTC

KOGA METAR
Searle Field Airport
Ogallala, Nebraska, USA
Current

10 mins ago

KOGA 210635Z AUTO 06012KT 5SM -RA OVC006 06/05 A2979 RMK AO2 LTG DSNT NE P0009 T00550051
Observed
May-21 @ 06:35 UTC
Wind
  • 060° at 12 KTS
Visibility
5 SM
Flight Rules
IFR
Conditions
Light Rain
Cloud Levels
  • Overcast at 600' AGL
Temperature
C / 43°F
Dewpoint
C / 41°F
Humidity
93%
Altimeter
29.79" Hg
Pressure
1008.82 hPa
Current Rain
0.09"
Previous

30 mins ago

KOGA 210615Z AUTO 07011KT 5SM -RA OVC006 06/05 A2981 RMK AO2 P0003 T00550051
Observed
May-21 @ 06:15 UTC
Wind
  • 070° at 11 KTS
Visibility
5 SM
Flight Rules
IFR
Conditions
Light Rain
Cloud Levels
  • Overcast at 600' AGL
Temperature
C / 43°F
Dewpoint
C / 41°F
Humidity
93%
Altimeter
29.81" Hg
Pressure
1009.52 hPa
Current Rain
0.03"
Previous

50 mins ago

KOGA 210555Z AUTO 06011KT 3SM -RA OVC004 05/05 A2980 RMK AO2 P0011 60013 T00540051 10056 20051
Observed
May-21 @ 05:55 UTC
Wind
  • 060° at 11 KTS
Visibility
3 SM
Flight Rules
LIFR
Conditions
Light Rain
Cloud Levels
  • Overcast at 400' AGL
Temperature
C / 41°F
Dewpoint
C / 41°F
Humidity
100%
Altimeter
29.8" Hg
Pressure
1009.12 hPa
Current Rain
0.11"